Time;durP1;ratioP1;P1;durP2;ratioP2;P2;SDS_P1;SDS_P2;PMS_P1;PMS_P2;Temp;Humidity;BMP_temperature;BMP_pressure;BME280_temperature;BME280_humidity;BME280_pressure;Samples;Min_cycle;Max_cycle;Signal;HPM_P1;HPM_P2
2023/06/24 00:00:54;;;;;;;;;;;;;;;17.38;100.00;102401.56;5014563;28;20439;-69
2023/06/24 00:03:20;;;;;;;;;;;;;;;17.37;100.00;102393.56;5015170;28;19929;-69
2023/06/24 00:05:49;;;;;;;;;;;;;;;17.36;100.00;102395.41;5013310;28;19947;-69
2023/06/24 00:08:14;;;;;;;;;;;;;;;17.39;100.00;102391.59;5016575;28;20421;-69
2023/06/24 00:10:39;;;;;;;;;;;;;;;17.44;100.00;102392.06;5015215;28;19925;-69
2023/06/24 00:13:04;;;;;;;;;;;;;;;17.42;100.00;102385.91;5013766;28;19925;-69
2023/06/24 00:15:29;;;;;;;;;;;;;;;17.38;100.00;102396.13;5012716;28;19978;-69
2023/06/24 00:18:05;;;;;;;;;;;;;;;17.30;100.00;102390.50;5015660;28;20103;-69
2023/06/24 00:20:30;;;;;;;;;;;;;;;17.22;100.00;102396.53;5016095;28;20371;-69
2023/06/24 00:22:55;;;;;;;;;;;;;;;17.19;100.00;102391.38;5012291;28;20000;-69
2023/06/24 00:25:21;;;;;;;;;;;;;;;17.19;100.00;102395.94;5016810;28;19920;-69
2023/06/24 00:27:46;;;;;;;;;;;;;;;17.20;100.00;102401.25;5013691;28;19920;-69
2023/06/24 00:30:11;;;;;;;;;;;;;;;17.23;100.00;102400.97;5015384;28;19922;-69
2023/06/24 00:32:37;;;;;;;;;;;;;;;17.30;100.00;102393.22;5008190;28;19925;-69
2023/06/24 00:35:02;;;;;;;;;;;;;;;17.33;100.00;102394.81;5010527;28;19925;-69
2023/06/24 00:37:27;;;;;;;;;;;;;;;17.38;100.00;102398.00;5016173;28;20436;-69
2023/06/24 00:39:53;;;;;;;;;;;;;;;17.41;100.00;102399.59;5010416;28;20392;-69
2023/06/24 00:42:18;;;;;;;;;;;;;;;17.45;100.00;102401.06;5007235;28;20989;-69
2023/06/24 00:44:43;;;;;;;;;;;;;;;17.47;100.00;102399.97;5010872;28;20023;-69
2023/06/24 00:47:08;;;;;;;;;;;;;;;17.45;100.00;102407.38;5014760;28;20039;-69
2023/06/24 00:49:34;;;;;;;;;;;;;;;17.41;100.00;102405.91;5007002;28;20522;-69
2023/06/24 00:52:00;;;;;;;;;;;;;;;17.37;100.00;102407.97;5009879;28;19936;-69
2023/06/24 00:54:30;;;;;;;;;;;;;;;17.36;100.00;102405.41;5012309;28;20012;-69
2023/06/24 00:56:56;;;;;;;;;;;;;;;17.33;100.00;102406.53;5009214;28;19917;-69
2023/06/24 00:59:21;;;;;;;;;;;;;;;17.33;100.00;102419.22;5006847;28;19947;-69
2023/06/24 01:01:46;;;;;;;;;;;;;;;17.33;100.00;102406.53;5020788;28;19925;-69
2023/06/24 01:04:11;;;;;;;;;;;;;;;17.15;100.00;102418.88;5011179;28;20036;-69
2023/06/24 01:06:43;;;;;;;;;;;;;;;17.18;100.00;102416.78;5013393;28;19963;-69
2023/06/24 01:09:08;;;;;;;;;;;;;;;17.19;100.00;102402.25;5013123;28;20000;-69
2023/06/24 01:11:34;;;;;;;;;;;;;;;17.19;100.00;102402.25;5009107;28;19917;-69
2023/06/24 01:13:59;;;;;;;;;;;;;;;17.18;100.00;102403.22;5008247;28;20387;-69
2023/06/24 01:16:31;;;;;;;;;;;;;;;17.20;100.00;102405.78;5010256;28;20346;-69
2023/06/24 01:19:00;;;;;;;;;;;;;;;17.15;100.00;102406.19;5010760;28;20465;-69
2023/06/24 01:21:33;;;;;;;;;;;;;;;17.14;100.00;102400.88;4994258;28;19963;-69
2023/06/24 01:24:04;;;;;;;;;;;;;;;16.96;100.00;102376.97;5011496;28;20022;-69
2023/06/24 01:26:50;;;;;;;;;;;;;;;17.14;100.00;102403.56;5014135;28;19921;-69
2023/06/24 01:29:25;;;;;;;;;;;;;;;17.20;100.00;102395.81;5007144;28;20379;-69
2023/06/24 01:31:51;;;;;;;;;;;;;;;17.19;100.00;102393.22;4987152;28;19988;-69
2023/06/24 01:34:16;;;;;;;;;;;;;;;17.01;100.00;102395.56;5007571;28;20000;-69
2023/06/24 01:36:44;;;;;;;;;;;;;;;16.92;100.00;102395.31;5012322;28;19921;-69
2023/06/24 01:39:09;;;;;;;;;;;;;;;16.84;100.00;102388.75;5016616;28;19928;-69
2023/06/24 01:41:36;;;;;;;;;;;;;;;16.79;100.00;102381.88;5015869;28;19921;-69
2023/06/24 01:44:01;;;;;;;;;;;;;;;16.84;100.00;102395.06;5012662;28;19972;-69
2023/06/24 01:46:27;;;;;;;;;;;;;;;16.91;100.00;102392.69;5008693;28;19920;-69
2023/06/24 01:48:53;;;;;;;;;;;;;;;16.85;100.00;102390.47;5012070;28;19995;-69
2023/06/24 01:51:19;;;;;;;;;;;;;;;16.72;100.00;102387.88;5013739;28;20410;-69
2023/06/24 01:53:48;;;;;;;;;;;;;;;16.62;100.00;102382.34;5017106;28;19928;-69
2023/06/24 01:56:14;;;;;;;;;;;;;;;16.52;100.00;102393.03;5012600;28;19944;-69
2023/06/24 01:58:39;;;;;;;;;;;;;;;16.46;100.00;102396.22;5015775;28;19948;-69
2023/06/24 02:01:05;;;;;;;;;;;;;;;16.40;100.00;102391.31;5008121;28;19991;-69
2023/06/24 02:03:31;;;;;;;;;;;;;;;16.36;100.00;102385.25;5006596;28;20447;-69
2023/06/24 02:05:56;;;;;;;;;;;;;;;16.28;100.00;102385.00;5029030;28;20356;-69
2023/06/24 02:08:21;;;;;;;;;;;;;;;16.13;100.00;102371.66;5015278;28;19922;-69
2023/06/24 02:10:47;;;;;;;;;;;;;;;16.21;100.00;102381.03;5010901;28;19921;-69
2023/06/24 02:13:12;;;;;;;;;;;;;;;16.09;100.00;102386.41;5007626;28;19928;-69
2023/06/24 02:15:38;;;;;;;;;;;;;;;15.96;100.00;102381.06;5009235;28;20285;-69
2023/06/24 02:18:04;;;;;;;;;;;;;;;15.90;100.00;102376.13;5011349;28;20371;-69
2023/06/24 02:20:30;;;;;;;;;;;;;;;15.85;100.00;102386.44;5015043;28;20167;-69
2023/06/24 02:22:55;;;;;;;;;;;;;;;15.81;100.00;102385.78;5012139;28;19944;-69
2023/06/24 02:25:20;;;;;;;;;;;;;;;15.75;100.00;102384.41;4997214;28;19972;-69
2023/06/24 02:27:45;;;;;;;;;;;;;;;15.72;100.00;102397.31;5012224;28;20476;-69
2023/06/24 02:30:11;;;;;;;;;;;;;;;15.67;100.00;102388.69;5011916;28;19921;-69
2023/06/24 02:32:38;;;;;;;;;;;;;;;15.70;100.00;102383.03;5010515;28;19948;-69
2023/06/24 02:35:03;;;;;;;;;;;;;;;15.67;100.00;102383.25;5007630;28;19968;-69
2023/06/24 02:37:28;;;;;;;;;;;;;;;15.61;100.00;102384.59;5012697;28;19952;-69
2023/06/24 02:39:54;;;;;;;;;;;;;;;15.62;100.00;102375.50;5013083;28;20373;-69
2023/06/24 02:42:19;;;;;;;;;;;;;;;15.63;100.00;102379.91;4994118;28;20016;-69
2023/06/24 02:44:44;;;;;;;;;;;;;;;15.65;100.00;102369.81;5012832;28;19970;-69
2023/06/24 02:47:10;;;;;;;;;;;;;;;15.63;100.00;102365.50;5010486;28;19986;-69
2023/06/24 02:49:36;;;;;;;;;;;;;;;15.56;100.00;102367.81;5015963;28;19928;-69
2023/06/24 02:52:01;;;;;;;;;;;;;;;15.49;100.00;102371.97;5010438;28;19925;-69
2023/06/24 02:54:26;;;;;;;;;;;;;;;15.46;100.00;102373.06;5016133;28;20008;-69
2023/06/24 02:56:51;;;;;;;;;;;;;;;15.44;100.00;102378.56;5012456;28;19949;-69
2023/06/24 02:59:17;;;;;;;;;;;;;;;15.38;100.00;102378.19;5007940;28;20004;-69
2023/06/24 03:01:44;;;;;;;;;;;;;;;15.35;100.00;102376.56;5011951;28;19927;-69
2023/06/24 03:04:10;;;;;;;;;;;;;;;15.33;100.00;102381.22;5005408;28;19929;-69
2023/06/24 03:06:37;;;;;;;;;;;;;;;15.30;100.00;102386.88;5013494;28;19928;-69
2023/06/24 03:09:03;;;;;;;;;;;;;;;15.27;100.00;102390.66;5000449;28;20286;-69
2023/06/24 03:11:28;;;;;;;;;;;;;;;15.25;100.00;102398.00;5014039;28;20015;-69
2023/06/24 03:13:54;;;;;;;;;;;;;;;15.25;100.00;102398.00;5010209;28;20504;-69
2023/06/24 03:16:19;;;;;;;;;;;;;;;14.98;100.00;102354.91;5010534;28;20337;-69
2023/06/24 03:18:44;;;;;;;;;;;;;;;15.22;100.00;102391.97;5010003;28;19951;-69
2023/06/24 03:21:10;;;;;;;;;;;;;;;15.16;100.00;102390.59;5011882;28;20341;-69
2023/06/24 03:23:35;;;;;;;;;;;;;;;15.10;100.00;102386.47;4997702;28;19925;-69
2023/06/24 03:26:00;;;;;;;;;;;;;;;15.08;100.00;102387.56;5010247;28;19928;-69
2023/06/24 03:28:26;;;;;;;;;;;;;;;15.06;100.00;102375.97;5014943;28;20526;-69
2023/06/24 03:30:51;;;;;;;;;;;;;;;15.05;100.00;102385.06;5010729;28;20306;-69
2023/06/24 03:33:16;;;;;;;;;;;;;;;15.03;100.00;102381.63;5009251;28;19947;-69
2023/06/24 03:35:45;;;;;;;;;;;;;;;14.99;100.00;102387.25;5016366;28;19921;-69
2023/06/24 03:38:11;;;;;;;;;;;;;;;15.00;100.00;102396.22;5015453;28;19920;-69
2023/06/24 03:40:36;;;;;;;;;;;;;;;14.97;100.00;102400.00;5009525;28;19925;-69
2023/06/24 03:43:01;;;;;;;;;;;;;;;14.95;100.00;102404.69;5013402;28;20434;-69
2023/06/24 03:45:27;;;;;;;;;;;;;;;14.95;100.00;102398.41;5005883;28;19952;-69
2023/06/24 03:47:52;;;;;;;;;;;;;;;14.82;100.00;102393.00;5014238;28;20054;-69
2023/06/24 03:50:17;;;;;;;;;;;;;;;14.75;100.00;102395.28;5010905;28;19921;-69
2023/06/24 03:52:44;;;;;;;;;;;;;;;14.74;100.00;102396.25;5010443;28;19925;-69
2023/06/24 03:55:09;;;;;;;;;;;;;;;14.77;100.00;102403.28;5017611;28;19963;-69
2023/06/24 03:57:34;;;;;;;;;;;;;;;14.79;100.00;102404.91;5012773;28;19929;-69
2023/06/24 03:59:59;;;;;;;;;;;;;;;14.81;100.00;102408.38;5009905;28;19973;-69
2023/06/24 04:02:26;;;;;;;;;;;;;;;14.80;100.00;102413.88;5014980;28;20407;-69
2023/06/24 04:04:52;;;;;;;;;;;;;;;14.83;100.00;102410.97;5015936;28;19963;-68
2023/06/24 04:07:27;;;;;;;;;;;;;;;14.87;100.00;102412.47;5016314;28;19972;-69
2023/06/24 04:09:54;;;;;;;;;;;;;;;14.90;100.00;102403.28;5018575;28;20022;-69
2023/06/24 04:12:19;;;;;;;;;;;;;;;14.94;100.00;102408.38;5024331;28;20500;-68
2023/06/24 04:14:44;;;;;;;;;;;;;;;14.95;100.00;102411.91;5017139;28;19920;-69
2023/06/24 04:17:09;;;;;;;;;;;;;;;14.96;100.00;102408.25;5015724;28;19962;-69
2023/06/24 04:19:35;;;;;;;;;;;;;;;14.99;100.00;102413.44;5017007;28;19921;-69
2023/06/24 04:22:00;;;;;;;;;;;;;;;15.04;100.00;102403.16;5013919;28;20005;-69
2023/06/24 04:24:25;;;;;;;;;;;;;;;15.06;100.00;102409.31;5015930;28;19929;-69
2023/06/24 04:26:50;;;;;;;;;;;;;;;15.12;100.00;102418.81;5011070;28;19928;-69
2023/06/24 04:29:16;;;;;;;;;;;;;;;15.16;100.00;102420.34;5008872;28;19968;-69
2023/06/24 04:31:41;;;;;;;;;;;;;;;15.23;100.00;102420.75;5010825;28;20315;-69
2023/06/24 04:34:06;;;;;;;;;;;;;;;15.32;100.00;102405.69;5009676;28;20014;-69
2023/06/24 04:36:32;;;;;;;;;;;;;;;15.43;100.00;102405.78;5010853;28;20075;-69
2023/06/24 04:38:57;;;;;;;;;;;;;;;15.52;100.00;102413.19;5007346;28;19928;-69
2023/06/24 04:41:22;;;;;;;;;;;;;;;15.61;100.00;102411.66;5014561;28;19963;-69
2023/06/24 04:43:48;;;;;;;;;;;;;;;15.71;100.00;102412.69;5012308;28;20401;-69
2023/06/24 04:46:13;;;;;;;;;;;;;;;15.81;100.00;102418.28;5004472;28;20020;-69
2023/06/24 04:48:38;;;;;;;;;;;;;;;15.91;100.00;102406.78;5007338;28;20402;-69
2023/06/24 04:51:03;;;;;;;;;;;;;;;15.99;100.00;102407.06;5011766;28;20394;-69
2023/06/24 04:53:29;;;;;;;;;;;;;;;16.08;100.00;102408.22;5011809;28;19928;-69
2023/06/24 04:55:54;;;;;;;;;;;;;;;16.16;100.00;102403.06;5013024;28;19960;-68
2023/06/24 04:58:19;;;;;;;;;;;;;;;16.28;100.00;102406.69;5009998;28;19968;-69
2023/06/24 05:00:44;;;;;;;;;;;;;;;16.41;100.00;102404.72;5011611;28;20011;-69
2023/06/24 05:03:10;;;;;;;;;;;;;;;16.52;100.00;102405.75;5009717;28;19925;-69
2023/06/24 05:05:35;;;;;;;;;;;;;;;16.63;100.00;102401.22;5013527;28;19928;-69
2023/06/24 05:08:00;;;;;;;;;;;;;;;16.75;100.00;102404.78;5012352;28;19944;-69
2023/06/24 05:10:25;;;;;;;;;;;;;;;16.86;100.00;102406.66;5010141;28;19921;-69
2023/06/24 05:12:51;;;;;;;;;;;;;;;16.98;100.00;102402.13;5011006;28;19921;-69
2023/06/24 05:15:16;;;;;;;;;;;;;;;17.07;100.00;102404.09;5011443;28;19927;-69
2023/06/24 05:17:42;;;;;;;;;;;;;;;17.16;100.00;102396.19;5011009;28;20011;-69
2023/06/24 05:20:07;;;;;;;;;;;;;;;17.27;100.00;102398.00;5006897;28;19920;-69
2023/06/24 05:22:32;;;;;;;;;;;;;;;17.38;100.00;102393.41;5010493;28;20015;-69
2023/06/24 05:24:58;;;;;;;;;;;;;;;17.47;100.00;102394.53;5010868;28;20795;-69
2023/06/24 05:27:23;;;;;;;;;;;;;;;17.62;100.00;102396.94;5008187;28;21295;-69
2023/06/24 05:29:48;;;;;;;;;;;;;;;17.73;100.00;102404.19;5014546;28;19963;-69
2023/06/24 05:32:13;;;;;;;;;;;;;;;17.84;100.00;102406.88;5006264;28;20856;-69
2023/06/24 05:34:38;;;;;;;;;;;;;;;17.90;100.00;102398.19;5011234;28;19921;-69
2023/06/24 05:37:04;;;;;;;;;;;;;;;18.04;100.00;102393.50;5009074;28;19952;-69
2023/06/24 05:39:29;;;;;;;;;;;;;;;18.18;100.00;102398.59;5008975;28;19957;-69
2023/06/24 05:41:55;;;;;;;;;;;;;;;18.24;100.00;102395.34;5008356;28;20351;-69
2023/06/24 05:44:20;;;;;;;;;;;;;;;18.36;100.00;102395.31;5010093;28;19961;-69
2023/06/24 05:46:45;;;;;;;;;;;;;;;18.48;100.00;102399.66;5006552;28;20023;-71
2023/06/24 05:49:10;;;;;;;;;;;;;;;18.58;100.00;102394.28;5013372;28;19927;-69
2023/06/24 05:51:36;;;;;;;;;;;;;;;18.52;100.00;102378.50;5008799;28;20288;-69
2023/06/24 05:54:01;;;;;;;;;;;;;;;18.80;100.00;102404.13;5012911;28;19925;-69
2023/06/24 05:56:26;;;;;;;;;;;;;;;18.87;100.00;102399.88;5011795;28;19964;-70
2023/06/24 05:58:51;;;;;;;;;;;;;;;18.96;100.00;102398.22;5009611;28;19968;-69
2023/06/24 06:01:17;;;;;;;;;;;;;;;19.08;100.00;102392.66;5005738;28;20348;-69
2023/06/24 06:03:42;;;;;;;;;;;;;;;19.18;100.00;102399.88;5007528;28;20023;-69
2023/06/24 06:06:07;;;;;;;;;;;;;;;19.29;100.00;102396.19;5014392;28;20015;-69
2023/06/24 06:08:33;;;;;;;;;;;;;;;19.33;100.00;102388.59;4995614;28;19921;-70
2023/06/24 06:10:58;;;;;;;;;;;;;;;19.47;100.00;102403.66;5006687;28;19964;-69
2023/06/24 06:13:24;;;;;;;;;;;;;;;19.47;100.00;102398.22;5007598;28;19921;-69
2023/06/24 06:15:49;;;;;;;;;;;;;;;19.57;100.00;102404.56;5014631;28;19956;-69
2023/06/24 06:18:14;;;;;;;;;;;;;;;19.55;100.00;102401.13;5015078;28;20028;-70
2023/06/24 06:20:39;;;;;;;;;;;;;;;19.66;100.00;102400.13;5012940;28;19925;-69
2023/06/24 06:23:04;;;;;;;;;;;;;;;19.75;100.00;102409.31;5013350;28;19921;-70
2023/06/24 06:25:30;;;;;;;;;;;;;;;19.73;100.00;102406.69;5014751;28;19932;-69
2023/06/24 06:27:55;;;;;;;;;;;;;;;19.76;100.00;102403.69;4996505;28;19921;-70
2023/06/24 06:30:20;;;;;;;;;;;;;;;19.92;100.00;102410.50;5014876;28;20023;-69
2023/06/24 06:32:45;;;;;;;;;;;;;;;19.85;100.00;102379.31;5002996;28;19931;-70
2023/06/24 06:35:11;;;;;;;;;;;;;;;20.06;100.00;102410.06;5008733;28;19921;-69
2023/06/24 06:37:36;;;;;;;;;;;;;;;20.22;100.00;102405.91;5009899;28;20366;-69
2023/06/24 06:40:02;;;;;;;;;;;;;;;20.31;100.00;102407.72;5010815;28;19921;-70
2023/06/24 06:42:27;;;;;;;;;;;;;;;20.41;100.00;102409.59;5010761;28;19921;-69
2023/06/24 06:44:52;;;;;;;;;;;;;;;20.47;100.00;102406.28;5011502;28;20413;-69
2023/06/24 06:47:17;;;;;;;;;;;;;;;20.50;100.00;102403.25;5013829;28;20919;-69
2023/06/24 06:49:42;;;;;;;;;;;;;;;20.65;100.00;102409.13;5004193;28;20008;-69
2023/06/24 06:52:08;;;;;;;;;;;;;;;20.59;100.00;102413.28;5009620;28;19975;-70
2023/06/24 06:54:33;;;;;;;;;;;;;;;20.63;100.00;102413.84;5008790;28;20226;-70
2023/06/24 06:57:05;;;;;;;;;;;;;;;20.74;100.00;102416.38;5006106;28;19925;-69
2023/06/24 06:59:30;;;;;;;;;;;;;;;20.88;100.00;102411.50;5008354;28;20297;-69
2023/06/24 07:01:56;;;;;;;;;;;;;;;21.01;100.00;102428.38;5007453;28;19921;-69
2023/06/24 07:04:21;;;;;;;;;;;;;;;21.09;98.44;102425.78;5010906;28;20022;-70
2023/06/24 07:06:46;;;;;;;;;;;;;;;21.19;98.24;102423.00;5007557;28;19921;-70
2023/06/24 07:09:12;;;;;;;;;;;;;;;21.30;97.88;102421.09;5012810;28;19928;-69
2023/06/24 07:11:37;;;;;;;;;;;;;;;21.40;100.00;102421.88;5016225;28;19917;-69
2023/06/24 07:14:02;;;;;;;;;;;;;;;21.52;98.42;102431.59;5016181;28;20016;-69
2023/06/24 07:16:27;;;;;;;;;;;;;;;21.39;96.31;102437.41;5017745;28;19972;-69
2023/06/24 07:18:53;;;;;;;;;;;;;;;21.43;97.33;102430.63;5015125;28;20291;-69
2023/06/24 07:21:18;;;;;;;;;;;;;;;21.39;99.56;102431.94;5003896;28;20089;-70
2023/06/24 07:23:43;;;;;;;;;;;;;;;21.51;100.00;102426.25;5012235;28;19965;-70
2023/06/24 07:26:08;;;;;;;;;;;;;;;21.47;94.22;102428.44;5008792;28;20003;-70
2023/06/24 07:28:33;;;;;;;;;;;;;;;21.49;90.81;102431.88;5008563;28;21106;-69
2023/06/24 07:30:59;;;;;;;;;;;;;;;21.57;89.64;102429.25;5009904;28;19925;-70
2023/06/24 07:33:24;;;;;;;;;;;;;;;21.70;89.37;102425.31;5011536;28;19917;-69
2023/06/24 07:35:49;;;;;;;;;;;;;;;21.79;83.44;102429.84;5013235;28;20427;-70
2023/06/24 07:38:14;;;;;;;;;;;;;;;21.71;87.28;102430.63;5016079;28;19921;-69
2023/06/24 07:40:40;;;;;;;;;;;;;;;21.56;85.44;102432.13;5017398;28;19964;-70
2023/06/24 07:43:05;;;;;;;;;;;;;;;21.75;85.00;102430.28;5023018;28;19928;-70
2023/06/24 07:45:30;;;;;;;;;;;;;;;21.95;87.64;102439.22;5036313;28;19953;-70
2023/06/24 07:47:55;;;;;;;;;;;;;;;22.13;83.70;102437.31;5018805;28;20086;-68
2023/06/24 07:50:20;;;;;;;;;;;;;;;22.24;85.00;102433.50;5013222;28;19925;-69
2023/06/24 07:52:46;;;;;;;;;;;;;;;22.26;78.25;102425.13;5011129;28;20012;-69
2023/06/24 07:55:11;;;;;;;;;;;;;;;22.44;79.96;102428.72;5012811;28;19925;-68
2023/06/24 07:57:36;;;;;;;;;;;;;;;22.58;80.22;102431.91;5007277;28;19928;-69
2023/06/24 08:00:02;;;;;;;;;;;;;;;22.67;83.10;102430.06;4997389;28;19936;-69
2023/06/24 08:02:27;;;;;;;;;;;;;;;22.74;76.77;102431.16;5003249;28;19921;-68
2023/06/24 08:04:54;;;;;;;;;;;;;;;22.53;80.01;102428.78;5015417;28;19964;-68
2023/06/24 08:07:19;;;;;;;;;;;;;;;22.35;77.87;102424.19;5030784;28;19939;-68
2023/06/24 08:09:44;;;;;;;;;;;;;;;22.47;77.37;102428.41;5004767;28;20913;-69
2023/06/24 08:12:10;;;;;;;;;;;;;;;22.67;83.49;102430.06;5004375;28;19963;-69
2023/06/24 08:14:35;;;;;;;;;;;;;;;22.75;75.69;102430.97;5013317;28;20386;-68
2023/06/24 08:17:00;;;;;;;;;;;;;;;22.92;79.49;102428.31;4995437;28;19972;-69
2023/06/24 08:19:26;;;;;;;;;;;;;;;23.07;74.69;102426.69;5024957;28;20422;-69
2023/06/24 08:21:51;;;;;;;;;;;;;;;23.00;77.41;102422.88;5007456;28;19972;-69
2023/06/24 08:24:16;;;;;;;;;;;;;;;22.84;82.30;102418.19;5009196;28;19971;-68
2023/06/24 08:26:41;;;;;;;;;;;;;;;22.71;77.03;102418.63;5008194;28;19948;-72
2023/06/24 08:29:07;;;;;;;;;;;;;;;22.55;74.03;102415.78;5006733;28;19925;-70
2023/06/24 08:31:32;;;;;;;;;;;;;;;22.52;76.46;102416.13;5005593;28;20214;-73
2023/06/24 08:34:05;;;;;;;;;;;;;;;22.35;72.41;102412.38;5010652;28;19925;-71
2023/06/24 08:36:31;;;;;;;;;;;;;;;22.49;75.68;102408.22;5026044;28;20364;-68
2023/06/24 08:38:56;;;;;;;;;;;;;;;22.61;70.32;102415.16;5014075;28;19928;-71
2023/06/24 08:41:22;;;;;;;;;;;;;;;22.74;73.37;102418.31;5010105;28;20269;-69
2023/06/24 08:43:47;;;;;;;;;;;;;;;22.70;73.27;102400.47;5007913;28;20506;-72
2023/06/24 08:46:13;;;;;;;;;;;;;;;22.61;70.53;102407.78;5023276;28;19987;-70
2023/06/24 08:48:40;;;;;;;;;;;;;;;22.80;79.46;102405.00;5011600;28;19921;-70
2023/06/24 08:51:05;;;;;;;;;;;;;;;22.86;70.29;102402.44;5011532;28;20352;-70
2023/06/24 08:53:30;;;;;;;;;;;;;;;22.86;71.15;102399.72;5013868;28;20031;-75
2023/06/24 08:55:55;;;;;;;;;;;;;;;22.68;65.09;102409.88;5010679;28;19921;-73
2023/06/24 08:58:21;;;;;;;;;;;;;;;22.88;65.88;102413.25;5006879;28;19999;-70
2023/06/24 09:00:46;;;;;;;;;;;;;;;22.93;66.97;102408.13;5007310;28;20799;-72
2023/06/24 09:03:11;;;;;;;;;;;;;;;23.02;63.95;102400.84;5010508;28;19925;-71
2023/06/24 09:05:36;;;;;;;;;;;;;;;23.10;75.58;102395.38;5012074;28;20040;-71
2023/06/24 09:08:02;;;;;;;;;;;;;;;23.26;65.33;102397.34;5028221;28;19927;-70
2023/06/24 09:10:34;;;;;;;;;;;;;;;23.33;64.61;102403.88;5021984;28;19917;-75
2023/06/24 09:13:02;;;;;;;;;;;;;;;23.21;62.37;102397.84;5016823;28;20048;-72
2023/06/24 09:15:33;;;;;;;;;;;;;;;23.33;64.12;102403.00;5016337;28;19967;-76
2023/06/24 09:18:02;;;;;;;;;;;;;;;23.31;64.23;102400.44;5020824;28;19921;-71
2023/06/24 09:20:27;;;;;;;;;;;;;;;23.37;60.96;102401.66;5018068;28;19943;-74
2023/06/24 09:22:57;;;;;;;;;;;;;;;23.63;65.81;102392.47;5033035;28;20411;-71
2023/06/24 09:25:23;;;;;;;;;;;;;;;23.86;59.13;102400.03;5015465;28;19929;-71
2023/06/24 09:27:52;;;;;;;;;;;;;;;23.55;56.46;102393.31;5012812;28;19921;-72
2023/06/24 09:30:21;;;;;;;;;;;;;;;23.67;58.36;102389.22;5015831;28;20126;-72
2023/06/24 09:32:47;;;;;;;;;;;;;;;23.84;59.82;102377.44;4999999;28;19947;-75
2023/06/24 09:35:12;;;;;;;;;;;;;;;24.21;58.56;102376.94;5012733;28;19921;-71
2023/06/24 09:37:37;;;;;;;;;;;;;;;24.20;53.69;102375.22;5018960;28;19916;-72
2023/06/24 09:40:05;;;;;;;;;;;;;;;24.30;53.33;102371.41;5017786;28;20454;-71
2023/06/24 09:42:30;;;;;;;;;;;;;;;24.19;56.32;102370.75;5013564;28;20964;-73
2023/06/24 09:44:55;;;;;;;;;;;;;;;24.32;62.11;102375.72;5015217;28;20317;-75
2023/06/24 09:47:24;;;;;;;;;;;;;;;24.17;56.62;102377.44;4995195;28;20435;-72
2023/06/24 09:49:50;;;;;;;;;;;;;;;24.32;59.36;102372.97;5009632;28;19952;-71
2023/06/24 09:52:16;;;;;;;;;;;;;;;24.42;61.74;102370.88;5008433;28;20327;-71
2023/06/24 09:54:42;;;;;;;;;;;;;;;24.50;54.99;102363.66;5004262;28;19925;-74
2023/06/24 09:57:07;;;;;;;;;;;;;;;24.50;55.99;102364.50;5006952;28;20355;-74
2023/06/24 09:59:33;;;;;;;;;;;;;;;24.64;55.08;102360.16;5017790;28;20365;-74
2023/06/24 10:01:58;;;;;;;;;;;;;;;24.71;57.28;102366.72;4996058;28;20517;-72
2023/06/24 10:04:23;;;;;;;;;;;;;;;24.85;53.23;102362.38;5003606;28;20642;-75
2023/06/24 10:06:49;;;;;;;;;;;;;;;24.86;57.24;102364.06;5008448;28;19921;-72
2023/06/24 10:09:16;;;;;;;;;;;;;;;24.95;54.64;102358.56;5009913;28;20021;-73
2023/06/24 10:11:42;;;;;;;;;;;;;;;25.05;55.86;102355.59;5011025;28;19932;-73
2023/06/24 10:14:07;;;;;;;;;;;;;;;24.95;55.49;102366.81;5006089;28;19964;-76
2023/06/24 10:16:32;;;;;;;;;;;;;;;24.91;54.05;102363.53;5010461;28;19921;-75
2023/06/24 10:19:01;;;;;;;;;;;;;;;25.03;52.73;102364.00;5007173;28;20095;-72
2023/06/24 10:21:56;;;;;;;;;;;;;;;25.15;55.66;102362.56;5013569;28;19921;-73
2023/06/24 10:24:31;;;;;;;;;;;;;;;25.38;59.88;102359.00;4989636;28;19925;-73
2023/06/24 10:27:21;;;;;;;;;;;;;;;25.21;50.88;102363.72;5008481;28;19928;-78
2023/06/24 10:29:47;;;;;;;;;;;;;;;25.28;50.44;102366.63;5000296;28;19922;-76
2023/06/24 10:32:13;;;;;;;;;;;;;;;25.52;55.81;102351.06;5009026;28;19929;-74
2023/06/24 10:34:38;;;;;;;;;;;;;;;25.39;48.36;102360.72;5010174;28;19922;-78
2023/06/24 10:37:09;;;;;;;;;;;;;;;25.73;51.12;102340.22;5007313;28;20008;-76
2023/06/24 10:39:40;;;;;;;;;;;;;;;25.83;55.06;102348.22;5009758;28;20015;-76
2023/06/24 10:42:26;;;;;;;;;;;;;;;26.12;52.67;102343.88;5006550;28;19917;-77
2023/06/24 10:44:54;;;;;;;;;;;;;;;26.68;51.24;102345.31;5020710;28;21058;-75
2023/06/24 10:47:19;;;;;;;;;;;;;;;27.20;52.33;102348.13;5012304;28;19925;-74
2023/06/24 10:49:48;;;;;;;;;;;;;;;27.61;47.08;102343.91;5014078;28;20268;-75
2023/06/24 10:52:13;;;;;;;;;;;;;;;27.66;46.60;102346.94;5001973;28;19921;-73
2023/06/24 10:54:39;;;;;;;;;;;;;;;27.37;48.68;102346.81;5020834;28;19949;-80
2023/06/24 10:57:04;;;;;;;;;;;;;;;27.01;51.65;102347.69;4986285;28;19927;-70
2023/06/24 10:59:39;;;;;;;;;;;;;;;27.27;51.56;102346.28;5007770;28;19921;-75
2023/06/24 11:02:05;;;;;;;;;;;;;;;26.92;49.21;102335.91;5011699;28;19967;-68
2023/06/24 11:04:30;;;;;;;;;;;;;;;27.01;49.25;102336.66;5028245;28;19933;-67
2023/06/24 11:07:02;;;;;;;;;;;;;;;27.75;47.39;102329.16;5008863;28;19925;-68
2023/06/24 11:09:27;;;;;;;;;;;;;;;28.46;49.95;102332.91;5008385;28;19925;-67
2023/06/24 11:11:52;;;;;;;;;;;;;;;29.12;46.89;102330.69;5011850;28;20151;-69
2023/06/24 11:14:19;;;;;;;;;;;;;;;29.71;43.56;102329.09;5009488;28;19921;-75
2023/06/24 11:16:47;;;;;;;;;;;;;;;30.18;43.91;102315.25;5010536;28;19928;-74
2023/06/24 11:19:13;;;;;;;;;;;;;;;29.94;40.76;102325.03;5007998;28;20430;-75
2023/06/24 11:21:38;;;;;;;;;;;;;;;30.24;44.55;102310.75;5006825;28;20195;-75
2023/06/24 11:24:03;;;;;;;;;;;;;;;30.74;42.22;102323.22;5006143;28;19972;-75
2023/06/24 11:26:28;;;;;;;;;;;;;;;31.06;41.09;102315.81;5012205;28;20020;-76
2023/06/24 11:28:54;;;;;;;;;;;;;;;31.46;42.66;102317.50;5005676;28;19925;-77
2023/06/24 11:31:19;;;;;;;;;;;;;;;31.47;40.70;102315.56;5006825;28;20040;-78
2023/06/24 11:33:50;;;;;;;;;;;;;;;31.41;38.62;102311.78;5020346;28;20046;-78
2023/06/24 11:36:18;;;;;;;;;;;;;;;29.93;42.76;102302.06;5012216;28;19921;-76
2023/06/24 11:38:45;;;;;;;;;;;;;;;29.55;41.55;102302.69;5012004;28;19929;-78
2023/06/24 11:41:10;;;;;;;;;;;;;;;30.37;41.72;102296.03;5011280;28;19960;-76
2023/06/24 11:43:35;;;;;;;;;;;;;;;30.40;40.20;102298.38;5013042;28;19921;-76
2023/06/24 11:46:01;;;;;;;;;;;;;;;29.87;40.57;102302.91;5025557;28;19925;-75
2023/06/24 11:48:27;;;;;;;;;;;;;;;30.46;43.10;102293.88;5024398;28;20037;-74
2023/06/24 11:50:53;;;;;;;;;;;;;;;29.30;40.47;102288.59;5014612;28;19975;-74
2023/06/24 11:53:22;;;;;;;;;;;;;;;29.13;41.73;102268.78;5004998;28;20291;-74
2023/06/24 11:55:51;;;;;;;;;;;;;;;29.43;42.23;102287.78;5008647;28;19921;-75
2023/06/24 11:58:19;;;;;;;;;;;;;;;29.37;42.99;102283.09;5015567;28;19921;-75
2023/06/24 12:00:46;;;;;;;;;;;;;;;29.48;48.64;102285.25;5010082;28;19928;-75
2023/06/24 12:03:11;;;;;;;;;;;;;;;29.73;47.88;102284.63;5015692;28;20004;-79
2023/06/24 12:05:37;;;;;;;;;;;;;;;29.30;41.33;102278.38;5008668;28;19924;-80
2023/06/24 12:08:02;;;;;;;;;;;;;;;29.37;43.13;102280.34;5014481;28;20418;-72
2023/06/24 12:10:28;;;;;;;;;;;;;;;29.55;43.25;102276.94;5013261;28;19956;-73
2023/06/24 12:12:54;;;;;;;;;;;;;;;30.30;42.62;102270.28;5006590;28;20275;-72
2023/06/24 12:15:19;;;;;;;;;;;;;;;30.79;38.85;102279.91;5003659;28;20415;-73
2023/06/24 12:17:44;;;;;;;;;;;;;;;30.87;42.98;102269.63;5016590;28;20409;-71
2023/06/24 12:20:10;;;;;;;;;;;;;;;30.38;41.67;102270.88;5012932;28;20417;-77
2023/06/24 12:22:35;;;;;;;;;;;;;;;30.66;40.90;102271.66;5009375;28;19971;-69
2023/06/24 12:25:00;;;;;;;;;;;;;;;31.37;42.43;102272.56;5010637;28;19932;-69